Time;durP1;ratioP1;P1;durP2;ratioP2;P2;SDS_P1;SDS_P2;PMS_P1;PMS_P2;Temp;Humidity;BMP_temperature;BMP_pressure;BME280_temperature;BME280_humidity;BME280_pressure;Samples;Min_cycle;Max_cycle;Signal;HPM_P1;HPM_P2
2022/04/14 00:00:38;;;;;;;;;;;10.20;99.90;;;;;;4981781;28;19925;-81
2022/04/14 00:03:04;;;;;;;;;;;10.10;99.90;;;;;;4993759;28;19953;-81
2022/04/14 00:05:30;;;;;;;;;;;10.00;99.90;;;;;;4980256;28;19926;-80
2022/04/14 00:07:55;;;;;;;;;;;9.90;99.90;;;;;;4979616;28;19921;-81
2022/04/14 00:10:21;;;;;;;;;;;9.90;99.90;;;;;;4978202;28;19922;-81
2022/04/14 00:12:48;;;;;;;;;;;9.80;99.90;;;;;;4975697;28;19982;-81
2022/04/14 00:15:13;;;;;;;;;;;9.70;99.90;;;;;;4982128;28;19976;-81
2022/04/14 00:17:39;;;;;;;;;;;9.60;99.90;;;;;;4966541;28;20337;-80
2022/04/14 00:20:06;;;;;;;;;;;9.50;99.90;;;;;;4967155;28;19917;-80
2022/04/14 00:22:32;;;;;;;;;;;9.40;99.90;;;;;;4960035;28;19914;-81
2022/04/14 00:24:58;;;;;;;;;;;9.40;99.90;;;;;;4964397;28;19925;-81
2022/04/14 00:27:23;;;;;;;;;;;9.30;99.90;;;;;;4995958;28;19914;-81
2022/04/14 00:29:49;;;;;;;;;;;9.10;99.90;;;;;;4977296;28;20272;-81
2022/04/14 00:32:19;;;;;;;;;;;9.10;99.90;;;;;;4983382;28;19914;-79
2022/04/14 00:34:44;;;;;;;;;;;9.00;99.90;;;;;;4984996;28;19921;-81
2022/04/14 00:37:10;;;;;;;;;;;9.10;99.90;;;;;;4965965;28;19914;-81
2022/04/14 00:39:36;;;;;;;;;;;9.10;99.90;;;;;;4972315;28;19921;-81
2022/04/14 00:42:11;;;;;;;;;;;9.10;99.90;;;;;;4982037;28;19914;-81
2022/04/14 00:44:36;;;;;;;;;;;9.00;99.90;;;;;;4981077;28;19929;-81
2022/04/14 00:47:05;;;;;;;;;;;9.00;99.90;;;;;;4984033;28;20415;-80
2022/04/14 00:49:31;;;;;;;;;;;8.90;99.90;;;;;;4984639;28;19914;-81
2022/04/14 00:51:59;;;;;;;;;;;8.80;99.90;;;;;;4971750;28;20012;-81
2022/04/14 00:54:24;;;;;;;;;;;8.70;99.90;;;;;;4981992;28;19957;-80
2022/04/14 00:56:50;;;;;;;;;;;8.70;99.90;;;;;;4978772;28;19914;-81
2022/04/14 00:59:16;;;;;;;;;;;8.60;99.90;;;;;;4979617;28;20291;-81
2022/04/14 01:01:41;;;;;;;;;;;8.60;99.90;;;;;;4979112;28;19918;-81
2022/04/14 01:04:09;;;;;;;;;;;8.60;99.90;;;;;;4974496;28;19922;-81
2022/04/14 01:06:37;;;;;;;;;;;8.60;99.90;;;;;;4981182;28;19914;-81
2022/04/14 01:09:21;;;;;;;;;;;8.60;99.90;;;;;;4989993;28;20004;-81
2022/04/14 01:11:48;;;;;;;;;;;8.50;99.90;;;;;;4989468;28;19914;-81
2022/04/14 01:14:23;;;;;;;;;;;8.60;99.90;;;;;;4991856;28;19914;-81
2022/04/14 01:16:49;;;;;;;;;;;8.50;99.90;;;;;;4995611;28;19918;-81
2022/04/14 01:19:14;;;;;;;;;;;8.50;99.90;;;;;;4986667;28;19914;-80
2022/04/14 01:21:41;;;;;;;;;;;8.40;99.90;;;;;;4984577;28;20008;-80
2022/04/14 01:24:09;;;;;;;;;;;8.40;99.90;;;;;;4968951;28;20009;-81
2022/04/14 01:26:37;;;;;;;;;;;8.40;99.90;;;;;;4963809;28;19925;-79
2022/04/14 01:29:03;;;;;;;;;;;8.30;99.90;;;;;;4981420;28;19941;-82
2022/04/14 01:31:33;;;;;;;;;;;8.20;99.90;;;;;;4983004;28;19914;-81
2022/04/14 01:33:59;;;;;;;;;;;8.20;99.90;;;;;;4988050;28;19946;-81
2022/04/14 01:36:24;;;;;;;;;;;8.10;99.90;;;;;;4998304;28;19910;-81
2022/04/14 01:38:50;;;;;;;;;;;8.10;99.90;;;;;;4980038;28;20012;-81
2022/04/14 01:41:15;;;;;;;;;;;8.10;99.90;;;;;;4970570;28;19914;-80
2022/04/14 01:43:43;;;;;;;;;;;8.00;99.90;;;;;;4959336;28;19989;-81
2022/04/14 01:46:09;;;;;;;;;;;8.10;99.90;;;;;;4973638;28;19914;-80
2022/04/14 01:48:38;;;;;;;;;;;8.00;99.90;;;;;;4974788;28;19914;-81
2022/04/14 01:51:04;;;;;;;;;;;8.10;99.90;;;;;;4976491;28;19977;-80
2022/04/14 01:53:30;;;;;;;;;;;8.00;99.90;;;;;;4958126;28;19922;-80
2022/04/14 01:55:56;;;;;;;;;;;7.90;99.90;;;;;;4971566;28;19969;-81
2022/04/14 01:58:22;;;;;;;;;;;7.90;99.90;;;;;;4979106;28;19914;-80
2022/04/14 02:00:47;;;;;;;;;;;7.90;99.90;;;;;;4961704;28;19914;-81
2022/04/14 02:03:14;;;;;;;;;;;7.80;99.90;;;;;;4981452;28;19977;-80
2022/04/14 02:05:39;;;;;;;;;;;7.70;99.90;;;;;;4962981;28;19922;-82
2022/04/14 02:08:05;;;;;;;;;;;7.70;99.90;;;;;;4976444;28;19942;-82
2022/04/14 02:10:31;;;;;;;;;;;7.70;99.90;;;;;;4974780;28;19949;-81
2022/04/14 02:12:58;;;;;;;;;;;7.80;99.90;;;;;;4967644;28;19918;-81
2022/04/14 02:15:23;;;;;;;;;;;7.70;99.90;;;;;;4976808;28;19996;-81
2022/04/14 02:17:49;;;;;;;;;;;7.70;99.90;;;;;;4958688;28;20341;-80
2022/04/14 02:20:15;;;;;;;;;;;7.60;99.90;;;;;;4971436;28;20280;-79
2022/04/14 02:22:42;;;;;;;;;;;7.60;99.90;;;;;;4983166;28;20282;-80
2022/04/14 02:25:09;;;;;;;;;;;7.60;99.90;;;;;;4972545;28;20435;-81
2022/04/14 02:27:35;;;;;;;;;;;7.50;99.90;;;;;;4977718;28;19921;-81
2022/04/14 02:30:00;;;;;;;;;;;7.50;99.90;;;;;;4962023;28;19915;-81
2022/04/14 02:32:26;;;;;;;;;;;7.50;99.90;;;;;;4973288;28;20332;-80
2022/04/14 02:34:51;;;;;;;;;;;7.50;99.90;;;;;;4972551;28;19921;-80
2022/04/14 02:37:17;;;;;;;;;;;7.40;99.90;;;;;;4978679;28;19914;-80
2022/04/14 02:39:42;;;;;;;;;;;7.40;99.90;;;;;;4974937;28;19914;-81
2022/04/14 02:42:09;;;;;;;;;;;7.30;99.90;;;;;;4954760;28;19961;-80
2022/04/14 02:44:35;;;;;;;;;;;7.30;99.90;;;;;;4956174;28;20354;-82
2022/04/14 02:47:00;;;;;;;;;;;7.30;99.90;;;;;;4969079;28;20005;-81
2022/04/14 02:49:26;;;;;;;;;;;7.20;99.90;;;;;;4960684;28;19925;-80
2022/04/14 02:51:51;;;;;;;;;;;7.20;99.90;;;;;;4965820;28;19922;-80
2022/04/14 02:54:20;;;;;;;;;;;7.20;99.90;;;;;;4978224;28;19914;-80
2022/04/14 02:56:45;;;;;;;;;;;7.20;99.90;;;;;;4978436;28;20466;-80
2022/04/14 02:59:11;;;;;;;;;;;7.10;99.90;;;;;;4973807;28;19969;-80
2022/04/14 03:01:36;;;;;;;;;;;7.10;99.90;;;;;;4955289;28;19915;-80
2022/04/14 03:04:02;;;;;;;;;;;7.00;99.90;;;;;;4973956;28;20387;-82
2022/04/14 03:06:27;;;;;;;;;;;6.90;99.90;;;;;;4958876;28;19914;-80
2022/04/14 03:08:53;;;;;;;;;;;7.00;99.90;;;;;;4960885;28;19914;-81
2022/04/14 03:11:18;;;;;;;;;;;6.90;99.90;;;;;;4968125;28;19914;-80
2022/04/14 03:13:44;;;;;;;;;;;6.90;99.90;;;;;;4969914;28;19918;-81
2022/04/14 03:16:10;;;;;;;;;;;6.90;99.90;;;;;;4951968;29;19965;-81
2022/04/14 03:18:36;;;;;;;;;;;6.80;99.90;;;;;;4974237;28;19968;-80
2022/04/14 03:21:02;;;;;;;;;;;6.80;99.90;;;;;;4957006;28;19914;-81
2022/04/14 03:23:28;;;;;;;;;;;6.80;99.90;;;;;;4957255;28;19929;-80
2022/04/14 03:25:56;;;;;;;;;;;6.80;99.90;;;;;;4974139;28;19925;-80
2022/04/14 03:28:22;;;;;;;;;;;6.80;99.90;;;;;;4973167;28;19922;-80
2022/04/14 03:30:47;;;;;;;;;;;6.80;99.90;;;;;;4974920;28;20268;-80
2022/04/14 03:33:13;;;;;;;;;;;6.80;99.90;;;;;;4977478;28;19902;-81
2022/04/14 03:35:38;;;;;;;;;;;6.80;99.90;;;;;;4988280;28;19918;-79
2022/04/14 03:38:04;;;;;;;;;;;6.70;99.90;;;;;;4974183;28;19921;-82
2022/04/14 03:40:29;;;;;;;;;;;6.80;99.90;;;;;;4993561;28;19914;-81
2022/04/14 03:42:55;;;;;;;;;;;6.80;99.90;;;;;;4974242;28;19911;-80
2022/04/14 03:45:23;;;;;;;;;;;6.70;99.90;;;;;;4976436;28;21336;-81
2022/04/14 03:47:48;;;;;;;;;;;6.70;99.90;;;;;;4977059;28;19914;-81
2022/04/14 03:50:14;;;;;;;;;;;6.70;99.90;;;;;;4980415;28;19921;-81
2022/04/14 03:52:39;;;;;;;;;;;6.60;99.90;;;;;;4970173;29;19922;-82
2022/04/14 03:55:06;;;;;;;;;;;6.40;99.90;;;;;;4961912;28;19969;-81
2022/04/14 03:57:31;;;;;;;;;;;6.30;99.90;;;;;;4981643;28;19914;-80
2022/04/14 03:59:57;;;;;;;;;;;6.40;99.90;;;;;;4953960;28;19915;-81
2022/04/14 04:02:22;;;;;;;;;;;6.50;99.90;;;;;;4963018;28;20387;-81
2022/04/14 04:04:48;;;;;;;;;;;6.70;99.90;;;;;;4970034;28;19965;-82
2022/04/14 04:07:14;;;;;;;;;;;6.80;99.90;;;;;;4935507;28;19918;-81
2022/04/14 04:09:39;;;;;;;;;;;6.90;99.90;;;;;;4976998;28;19914;-81
2022/04/14 04:12:05;;;;;;;;;;;6.90;99.90;;;;;;4955134;29;19937;-81
2022/04/14 04:14:31;;;;;;;;;;;6.90;99.90;;;;;;4972768;28;19921;-80
2022/04/14 04:16:56;;;;;;;;;;;7.00;99.90;;;;;;4959119;28;19921;-80
2022/04/14 04:19:22;;;;;;;;;;;7.00;99.90;;;;;;4973472;28;19952;-81
2022/04/14 04:21:49;;;;;;;;;;;7.00;99.90;;;;;;4960057;28;19918;-80
2022/04/14 04:24:14;;;;;;;;;;;7.10;99.90;;;;;;4971178;28;19954;-81
2022/04/14 04:26:40;;;;;;;;;;;7.10;99.90;;;;;;4979427;28;19914;-80
2022/04/14 04:29:07;;;;;;;;;;;7.10;99.90;;;;;;4976720;28;19915;-81
2022/04/14 04:31:32;;;;;;;;;;;7.10;99.90;;;;;;4965710;28;19925;-80
2022/04/14 04:33:58;;;;;;;;;;;7.10;99.90;;;;;;4984620;28;19914;-79
2022/04/14 04:36:24;;;;;;;;;;;7.20;99.90;;;;;;4972529;28;19914;-80
2022/04/14 04:38:49;;;;;;;;;;;7.30;99.90;;;;;;4974224;28;20085;-81
2022/04/14 04:41:15;;;;;;;;;;;7.40;99.90;;;;;;4971389;28;19921;-81
2022/04/14 04:43:41;;;;;;;;;;;7.40;99.90;;;;;;4980112;28;19958;-80
2022/04/14 04:46:08;;;;;;;;;;;7.40;99.90;;;;;;4974857;28;19913;-81
2022/04/14 04:48:37;;;;;;;;;;;7.70;99.90;;;;;;4988911;28;19922;-80
2022/04/14 04:51:02;;;;;;;;;;;7.80;99.90;;;;;;4960025;28;19914;-81
2022/04/14 04:53:28;;;;;;;;;;;7.80;99.90;;;;;;4958662;28;19914;-79
2022/04/14 04:55:53;;;;;;;;;;;7.80;99.90;;;;;;4966117;28;19914;-80
2022/04/14 04:58:19;;;;;;;;;;;7.70;99.90;;;;;;4977953;28;20013;-80
2022/04/14 05:00:45;;;;;;;;;;;7.70;99.90;;;;;;4957972;28;20352;-80
2022/04/14 05:03:12;;;;;;;;;;;7.70;99.90;;;;;;4966555;28;20257;-80
2022/04/14 05:05:38;;;;;;;;;;;7.70;99.90;;;;;;4973897;28;19932;-81
2022/04/14 05:08:05;;;;;;;;;;;7.70;99.90;;;;;;4965805;28;20291;-81
2022/04/14 05:10:31;;;;;;;;;;;7.70;99.90;;;;;;4970608;28;19938;-82
2022/04/14 05:12:57;;;;;;;;;;;7.60;99.90;;;;;;4971977;28;19918;-82
2022/04/14 05:15:23;;;;;;;;;;;7.50;99.90;;;;;;4957929;28;19933;-80
2022/04/14 05:17:48;;;;;;;;;;;7.50;99.90;;;;;;4970079;28;19938;-81
2022/04/14 05:20:14;;;;;;;;;;;7.50;99.90;;;;;;4978155;28;19921;-80
2022/04/14 05:22:39;;;;;;;;;;;7.60;99.90;;;;;;4973029;28;20066;-81
2022/04/14 05:25:05;;;;;;;;;;;7.60;99.90;;;;;;4973916;28;19961;-81
2022/04/14 05:27:30;;;;;;;;;;;7.50;99.90;;;;;;4978563;28;19914;-81
2022/04/14 05:29:56;;;;;;;;;;;7.60;99.90;;;;;;4963056;28;19914;-81
2022/04/14 05:32:22;;;;;;;;;;;7.60;99.90;;;;;;4953845;28;19922;-81
2022/04/14 05:34:47;;;;;;;;;;;7.60;99.90;;;;;;4978642;28;19914;-82
2022/04/14 05:37:13;;;;;;;;;;;7.70;99.90;;;;;;4974629;28;19915;-81
2022/04/14 05:39:38;;;;;;;;;;;7.80;99.90;;;;;;4988291;28;19926;-82
2022/04/14 05:42:05;;;;;;;;;;;7.80;99.90;;;;;;4988720;28;19929;-81
2022/04/14 05:44:31;;;;;;;;;;;7.70;99.90;;;;;;4985970;28;20735;-81
2022/04/14 05:46:56;;;;;;;;;;;7.70;99.90;;;;;;4976195;28;19948;-81
2022/04/14 05:49:22;;;;;;;;;;;7.70;99.90;;;;;;4964084;28;19922;-82
2022/04/14 05:51:47;;;;;;;;;;;7.90;99.90;;;;;;4974878;28;20009;-80
2022/04/14 05:54:14;;;;;;;;;;;8.00;99.90;;;;;;4977601;28;19914;-81
2022/04/14 05:56:40;;;;;;;;;;;8.10;99.90;;;;;;4986914;28;19932;-81
2022/04/14 05:59:05;;;;;;;;;;;8.10;99.90;;;;;;4988945;28;19957;-80
2022/04/14 06:01:32;;;;;;;;;;;8.10;99.90;;;;;;4984849;28;19993;-81
2022/04/14 06:03:58;;;;;;;;;;;8.00;99.90;;;;;;4969834;28;19926;-80
2022/04/14 06:06:23;;;;;;;;;;;8.10;99.90;;;;;;4965221;28;19914;-80
2022/04/14 06:08:49;;;;;;;;;;;8.20;99.90;;;;;;4978715;28;19918;-81
2022/04/14 06:11:14;;;;;;;;;;;8.30;99.90;;;;;;4955225;28;19937;-81
2022/04/14 06:13:40;;;;;;;;;;;8.30;99.90;;;;;;4961660;28;20281;-81
2022/04/14 06:16:06;;;;;;;;;;;8.30;99.90;;;;;;4974659;28;19922;-81
2022/04/14 06:18:31;;;;;;;;;;;8.30;99.90;;;;;;4975235;28;19953;-81
2022/04/14 06:20:57;;;;;;;;;;;8.40;99.90;;;;;;4974771;28;19959;-80
2022/04/14 06:23:22;;;;;;;;;;;8.30;99.90;;;;;;4960123;28;20360;-81
2022/04/14 06:25:51;;;;;;;;;;;8.30;99.90;;;;;;4983038;28;19922;-81
2022/04/14 06:28:17;;;;;;;;;;;8.50;99.90;;;;;;4974345;28;19964;-81
2022/04/14 06:30:44;;;;;;;;;;;8.40;99.90;;;;;;4966474;28;21168;-82
2022/04/14 06:33:09;;;;;;;;;;;8.50;99.90;;;;;;4966918;28;19924;-81
2022/04/14 06:35:35;;;;;;;;;;;8.60;99.90;;;;;;4972163;28;20482;-81
2022/04/14 06:38:00;;;;;;;;;;;8.70;99.90;;;;;;4977287;28;20009;-81
2022/04/14 06:40:26;;;;;;;;;;;8.70;99.90;;;;;;4970740;28;19969;-82
2022/04/14 06:42:52;;;;;;;;;;;8.70;99.90;;;;;;4977620;28;19914;-82
2022/04/14 06:45:17;;;;;;;;;;;8.80;99.90;;;;;;4973635;28;19922;-81
2022/04/14 06:47:43;;;;;;;;;;;8.90;99.90;;;;;;4962144;28;19914;-81
2022/04/14 06:50:09;;;;;;;;;;;9.00;99.90;;;;;;4982352;28;20021;-81
2022/04/14 06:52:36;;;;;;;;;;;9.10;99.90;;;;;;4975892;28;19914;-82
2022/04/14 06:55:02;;;;;;;;;;;9.00;99.90;;;;;;4986201;28;19922;-81
2022/04/14 06:57:27;;;;;;;;;;;9.00;99.90;;;;;;4956968;28;19914;-82
2022/04/14 06:59:53;;;;;;;;;;;9.10;99.90;;;;;;4976112;28;19972;-81
2022/04/14 07:02:19;;;;;;;;;;;9.10;99.90;;;;;;4975851;28;20275;-80
2022/04/14 07:04:44;;;;;;;;;;;9.10;99.90;;;;;;4974963;28;19922;-80
2022/04/14 07:07:10;;;;;;;;;;;9.10;99.90;;;;;;4975672;28;19985;-82
2022/04/14 07:09:36;;;;;;;;;;;9.10;99.90;;;;;;4964131;28;19968;-79
2022/04/14 07:12:04;;;;;;;;;;;9.20;99.90;;;;;;4973833;28;19914;-81
2022/04/14 07:14:30;;;;;;;;;;;9.20;99.90;;;;;;4955999;28;19921;-81
2022/04/14 07:16:57;;;;;;;;;;;9.20;99.90;;;;;;4973143;28;19961;-82
2022/04/14 07:19:22;;;;;;;;;;;9.40;99.90;;;;;;4958396;28;19945;-82
2022/04/14 07:21:48;;;;;;;;;;;9.40;99.90;;;;;;4971424;28;19977;-81
2022/04/14 07:24:14;;;;;;;;;;;9.50;99.90;;;;;;4977787;28;19929;-80
2022/04/14 07:26:39;;;;;;;;;;;9.50;99.90;;;;;;4977392;28;19918;-80
2022/04/14 07:29:05;;;;;;;;;;;9.50;99.90;;;;;;4974487;28;19921;-81
2022/04/14 07:31:35;;;;;;;;;;;9.70;99.90;;;;;;4981425;28;19921;-82
2022/04/14 07:34:01;;;;;;;;;;;9.80;99.90;;;;;;4961574;28;19914;-80
2022/04/14 07:36:27;;;;;;;;;;;9.90;99.90;;;;;;4972285;28;19997;-81
2022/04/14 07:38:53;;;;;;;;;;;9.90;99.90;;;;;;4972499;28;20443;-80
2022/04/14 07:41:18;;;;;;;;;;;10.00;99.90;;;;;;4973861;28;19914;-81
2022/04/14 07:43:44;;;;;;;;;;;10.10;99.90;;;;;;4974356;28;19946;-81
2022/04/14 07:46:10;;;;;;;;;;;10.20;99.90;;;;;;4974723;28;19945;-81
2022/04/14 07:48:35;;;;;;;;;;;10.30;99.90;;;;;;4964853;28;19950;-81
2022/04/14 07:51:01;;;;;;;;;;;10.40;99.90;;;;;;4969286;28;20284;-82
2022/04/14 07:53:27;;;;;;;;;;;10.50;99.90;;;;;;4952380;28;19940;-81
2022/04/14 07:55:53;;;;;;;;;;;10.40;99.90;;;;;;4956269;28;19914;-81
2022/04/14 07:58:20;;;;;;;;;;;10.60;99.90;;;;;;4973659;28;19981;-81
2022/04/14 08:00:46;;;;;;;;;;;10.70;99.90;;;;;;4960482;28;19949;-80
2022/04/14 08:03:12;;;;;;;;;;;10.70;99.90;;;;;;4971330;28;20451;-81
2022/04/14 08:05:38;;;;;;;;;;;10.80;99.90;;;;;;4967493;28;19975;-81
2022/04/14 08:08:08;;;;;;;;;;;10.90;99.90;;;;;;4951342;28;19929;-80
2022/04/14 08:10:34;;;;;;;;;;;11.10;99.90;;;;;;4942174;28;19918;-81
2022/04/14 08:13:00;;;;;;;;;;;11.10;99.90;;;;;;4967113;28;19922;-80
2022/04/14 08:15:26;;;;;;;;;;;11.10;99.90;;;;;;4976128;28;19922;-81
2022/04/14 08:17:51;;;;;;;;;;;11.20;99.90;;;;;;4979606;28;20285;-81
2022/04/14 08:20:17;;;;;;;;;;;11.10;99.90;;;;;;4970972;28;19918;-81
2022/04/14 08:22:47;;;;;;;;;;;11.30;99.90;;;;;;4976972;28;19950;-80
2022/04/14 08:25:18;;;;;;;;;;;11.40;99.90;;;;;;4970576;28;19969;-81
2022/04/14 08:27:44;;;;;;;;;;;11.50;99.90;;;;;;4975215;28;19921;-81
2022/04/14 08:30:09;;;;;;;;;;;11.70;99.90;;;;;;4968103;28;19929;-82
2022/04/14 08:32:35;;;;;;;;;;;11.70;99.90;;;;;;4954991;28;20388;-81
2022/04/14 08:35:02;;;;;;;;;;;11.80;99.90;;;;;;4978410;28;19928;-81
2022/04/14 08:37:28;;;;;;;;;;;11.70;99.90;;;;;;4952786;28;19921;-80
2022/04/14 08:39:53;;;;;;;;;;;11.90;99.90;;;;;;4960808;28;19961;-81
2022/04/14 08:42:22;;;;;;;;;;;12.10;99.90;;;;;;4987204;28;19914;-81
2022/04/14 08:44:52;;;;;;;;;;;12.20;99.90;;;;;;4966546;28;20559;-81
2022/04/14 08:47:23;;;;;;;;;;;12.30;99.90;;;;;;4988517;28;19906;-82
2022/04/14 08:49:48;;;;;;;;;;;12.50;99.90;;;;;;4968871;28;20360;-83
2022/04/14 08:52:15;;;;;;;;;;;12.60;99.90;;;;;;4973386;28;19925;-83
2022/04/14 08:54:43;;;;;;;;;;;12.70;99.90;;;;;;4978919;28;19949;-83
2022/04/14 08:57:13;;;;;;;;;;;12.80;99.90;;;;;;4950921;28;19925;-82
2022/04/14 08:59:47;;;;;;;;;;;13.00;99.90;;;;;;4974892;28;19921;-83
2022/04/14 09:02:14;;;;;;;;;;;13.00;99.90;;;;;;4972875;28;19941;-82
2022/04/14 09:04:43;;;;;;;;;;;13.30;99.90;;;;;;4962431;28;19913;-82
2022/04/14 09:07:13;;;;;;;;;;;13.40;99.90;;;;;;4965240;28;20205;-81
2022/04/14 09:09:38;;;;;;;;;;;13.40;99.90;;;;;;4971155;28;19914;-82
2022/04/14 09:12:04;;;;;;;;;;;13.50;99.90;;;;;;4962974;28;20379;-83
2022/04/14 09:14:34;;;;;;;;;;;13.60;99.90;;;;;;4965459;28;19924;-82
2022/04/14 09:17:03;;;;;;;;;;;13.80;99.90;;;;;;4969199;28;19915;-81
2022/04/14 09:19:30;;;;;;;;;;;13.90;99.90;;;;;;4954020;28;20016;-81
2022/04/14 09:21:56;;;;;;;;;;;14.10;99.90;;;;;;4952005;28;19922;-82
2022/04/14 09:24:41;;;;;;;;;;;14.20;99.90;;;;;;4961709;28;19965;-82
2022/04/14 09:27:08;;;;;;;;;;;14.50;99.90;;;;;;4949681;28;19919;-82
2022/04/14 09:29:33;;;;;;;;;;;14.60;99.90;;;;;;4920519;29;20013;-83
2022/04/14 09:32:01;;;;;;;;;;;14.70;99.90;;;;;;4948523;29;20009;-82
2022/04/14 09:34:51;;;;;;;;;;;14.90;99.90;;;;;;4939737;29;19917;-81
2022/04/14 09:37:23;;;;;;;;;;;15.00;99.90;;;;;;4955373;28;20357;-82
2022/04/14 09:39:54;;;;;;;;;;;15.30;99.90;;;;;;4961587;29;20001;-81
2022/04/14 09:42:21;;;;;;;;;;;15.80;99.90;;;;;;4947595;29;19981;-82
2022/04/14 09:44:46;;;;;;;;;;;15.80;99.90;;;;;;4953024;29;19949;-81
2022/04/14 09:47:15;;;;;;;;;;;15.90;99.90;;;;;;4949168;29;19919;-82
2022/04/14 09:49:41;;;;;;;;;;;16.30;99.90;;;;;;4939147;29;19926;-81
2022/04/14 09:52:07;;;;;;;;;;;16.20;99.90;;;;;;4937013;29;19922;-81
2022/04/14 09:54:33;;;;;;;;;;;16.20;99.90;;;;;;4953832;28;19933;-82
2022/04/14 09:56:59;;;;;;;;;;;16.50;99.90;;;;;;4951733;28;19989;-81
2022/04/14 09:59:28;;;;;;;;;;;16.90;99.90;;;;;;4936375;29;19940;-81
2022/04/14 10:02:12;;;;;;;;;;;17.50;99.90;;;;;;4950163;28;20049;-81
2022/04/14 10:04:40;;;;;;;;;;;17.40;99.90;;;;;;4958547;29;19924;-80
2022/04/14 10:07:06;;;;;;;;;;;17.30;99.90;;;;;;4935553;28;19919;-82
2022/04/14 10:09:33;;;;;;;;;;;17.60;99.90;;;;;;4948092;28;19922;-82
2022/04/14 10:11:59;;;;;;;;;;;17.80;99.90;;;;;;4924631;29;20333;-81
2022/04/14 10:14:25;;;;;;;;;;;18.10;99.90;;;;;;4954182;28;20013;-80
2022/04/14 10:16:51;;;;;;;;;;;17.90;99.90;;;;;;4952355;29;20313;-80
2022/04/14 10:19:18;;;;;;;;;;;18.00;99.90;;;;;;4950028;28;19962;-80
2022/04/14 10:21:44;;;;;;;;;;;18.20;99.90;;;;;;4949152;29;19950;-82
2022/04/14 10:24:11;;;;;;;;;;;18.10;99.90;;;;;;4952973;28;19990;-81
2022/04/14 10:26:37;;;;;;;;;;;18.10;99.90;;;;;;4940407;28;20058;-82
2022/04/14 10:29:04;;;;;;;;;;;18.00;99.90;;;;;;4934207;28;20010;-82
2022/04/14 10:31:36;;;;;;;;;;;18.20;99.90;;;;;;4964315;28;19965;-82
2022/04/14 10:34:04;;;;;;;;;;;18.50;99.90;;;;;;4963713;28;20029;-82
2022/04/14 10:36:40;;;;;;;;;;;18.30;99.90;;;;;;4955251;28;19925;-82
2022/04/14 10:39:10;;;;;;;;;;;18.50;99.90;;;;;;4951147;28;19926;-82
2022/04/14 10:41:38;;;;;;;;;;;18.60;99.90;;;;;;4951584;28;19910;-82
2022/04/14 10:44:04;;;;;;;;;;;18.70;99.90;;;;;;4938844;29;19929;-81
2022/04/14 10:46:31;;;;;;;;;;;18.70;99.90;;;;;;4959544;28;19915;-83
2022/04/14 10:49:10;;;;;;;;;;;18.30;99.90;;;;;;4955302;28;19926;-81
2022/04/14 10:51:36;;;;;;;;;;;18.40;99.90;;;;;;4956225;28;20374;-81
2022/04/14 10:54:09;;;;;;;;;;;18.70;99.90;;;;;;4978544;28;19917;-80
2022/04/14 10:56:34;;;;;;;;;;;18.70;99.90;;;;;;4950855;28;19946;-80
2022/04/14 10:59:00;;;;;;;;;;;19.10;99.90;;;;;;4969277;28;19903;-81
2022/04/14 11:01:44;;;;;;;;;;;19.30;99.90;;;;;;4974595;28;19967;-80
2022/04/14 11:04:23;;;;;;;;;;;19.10;99.90;;;;;;4949806;29;19918;-80
2022/04/14 11:06:51;;;;;;;;;;;19.20;99.90;;;;;;4955587;28;20009;-81
2022/04/14 11:09:38;;;;;;;;;;;19.10;99.90;;;;;;4959910;28;19946;-81
2022/04/14 11:12:05;;;;;;;;;;;18.90;99.90;;;;;;4952328;28;19934;-81
2022/04/14 11:14:34;;;;;;;;;;;18.60;99.90;;;;;;4958661;28;19914;-81
2022/04/14 11:17:00;;;;;;;;;;;18.40;99.90;;;;;;4939454;29;19915;-81
2022/04/14 11:19:27;;;;;;;;;;;18.30;99.90;;;;;;4935235;28;20005;-80
2022/04/14 11:22:02;;;;;;;;;;;18.30;99.90;;;;;;4965493;28;19918;-81
2022/04/14 11:24:36;;;;;;;;;;;18.10;99.90;;;;;;4957502;28;20332;-81
2022/04/14 11:27:11;;;;;;;;;;;18.10;99.90;;;;;;4970472;28;19921;-80
2022/04/14 11:29:37;;;;;;;;;;;18.30;99.90;;;;;;4969860;28;19914;-81
2022/04/14 11:32:04;;;;;;;;;;;18.60;99.90;;;;;;4951345;28;19923;-81
2022/04/14 11:34:30;;;;;;;;;;;18.60;99.90;;;;;;4970792;28;19918;-80
2022/04/14 11:36:56;;;;;;;;;;;18.70;99.90;;;;;;4953947;28;19914;-83
2022/04/14 11:39:23;;;;;;;;;;;18.90;99.90;;;;;;4971043;28;19937;-82
2022/04/14 11:41:53;;;;;;;;;;;18.90;99.90;;;;;;4956582;28;19937;-83
2022/04/14 11:44:21;;;;;;;;;;;18.80;99.90;;;;;;4957433;28;19925;-82
2022/04/14 11:46:54;;;;;;;;;;;18.60;99.90;;;;;;4957533;28;19918;-83
2022/04/14 11:49:21;;;;;;;;;;;18.50;99.90;;;;;;4976436;28;19918;-81
2022/04/14 11:51:53;;;;;;;;;;;18.30;99.90;;;;;;4967659;28;20356;-83
2022/04/14 11:54:20;;;;;;;;;;;18.20;99.90;;;;;;4957767;28;19925;-83
2022/04/14 11:56:52;;;;;;;;;;;17.90;99.90;;;;;;4975924;28;19918;-83
2022/04/14 11:59:22;;;;;;;;;;;17.70;99.90;;;;;;4967798;28;20001;-81
2022/04/14 12:01:49;;;;;;;;;;;18.00;99.90;;;;;;4968200;28;20332;-80
2022/04/14 12:04:14;;;;;;;;;;;18.00;99.90;;;;;;4969982;28;19922;-83
2022/04/14 12:06:49;;;;;;;;;;;18.10;99.90;;;;;;4968998;28;20025;-82
2022/04/14 12:09:19;;;;;;;;;;;18.30;99.90;;;;;;4973105;28;19914;-81
2022/04/14 12:11:44;;;;;;;;;;;18.30;99.90;;;;;;4973937;28;19914;-82
2022/04/14 12:14:10;;;;;;;;;;;18.30;99.90;;;;;;4956892;28;20009;-83
2022/04/14 12:16:35;;;;;;;;;;;18.30;99.90;;;;;;4972642;28;20313;-84
2022/04/14 12:19:02;;;;;;;;;;;18.30;99.90;;;;;;4970631;28;20058;-82
2022/04/14 12:21:28;;;;;;;;;;;18.40;99.90;;;;;;4969814;28;20206;-82
2022/04/14 12:23:55;;;;;;;;;;;18.40;99.90;;;;;;4978272;28;19959;-82
2022/04/14 12:26:22;;;;;;;;;;;18.30;99.90;;;;;;4962561;28;19914;-83
2022/04/14 12:28:47;;;;;;;;;;;18.20;99.90;;;;;;4954454;28;19988;-83
2022/04/14 12:31:13;;;;;;;;;;;18.50;99.90;;;;;;4953836;28;19929;-82
2022/04/14 12:33:40;;;;;;;;;;;18.70;99.90;;;;;;4971998;28;19946;-82
2022/04/14 12:36:09;;;;;;;;;;;18.70;99.90;;;;;;4983714;28;19918;-81
2022/04/14 12:38:45;;;;;;;;;;;18.60;99.90;;;;;;4958104;28;19961;-81
2022/04/14 12:41:22;;;;;;;;;;;18.70;99.90;;;;;;4962798;28;20253;-80
2022/04/14 12:43:48;;;;;;;;;;;18.70;99.90;;;;;;4954061;28;20287;-82
2022/04/14 12:46:22;;;;;;;;;;;18.30;99.90;;;;;;4962953;28;19977;-79
2022/04/14 12:48:58;;;;;;;;;;;17.90;99.90;;;;;;4970345;28;20071;-82
2022/04/14 12:51:31;;;;;;;;;;;17.90;99.90;;;;;;4971977;28;19965;-81
2022/04/14 12:53:57;;;;;;;;;;;17.80;99.90;;;;;;4967664;28;19934;-83
2022/04/14 12:56:23;;;;;;;;;;;17.80;99.90;;;;;;4963132;28;20120;-82
2022/04/14 12:59:06;;;;;;;;;;;17.70;99.90;;;;;;4980898;28;20047;-81
2022/04/14 13:01:46;;;;;;;;;;;17.90;99.90;;;;;;4960112;28;20008;-80
2022/04/14 13:04:12;;;;;;;;;;;18.10;99.90;;;;;;4972230;28;19965;-80
2022/04/14 13:06:37;;;;;;;;;;;18.30;99.90;;;;;;4971275;28;20005;-80
2022/04/14 13:09:13;;;;;;;;;;;18.50;99.90;;;;;;4969524;28;19950;-81
2022/04/14 13:11:40;;;;;;;;;;;18.70;99.40;;;;;;4972556;28;19993;-80
2022/04/14 13:14:22;;;;;;;;;;;18.70;98.30;;;;;;4962837;28;19920;-80
2022/04/14 13:16:52;;;;;;;;;;;18.60;98.80;;;;;;4947824;28;20013;-81
2022/04/14 13:19:18;;;;;;;;;;;18.90;98.40;;;;;;4952417;28;19915;-80
2022/04/14 13:21:44;;;;;;;;;;;19.00;99.30;;;;;;4980019;28;20427;-82
2022/04/14 13:24:10;;;;;;;;;;;19.10;99.10;;;;;;4952111;28;19957;-83
2022/04/14 13:26:35;;;;;;;;;;;19.10;99.20;;;;;;4971034;28;19914;-82
2022/04/14 13:29:02;;;;;;;;;;;19.00;99.40;;;;;;4951352;28;19918;-82
2022/04/14 13:31:27;;;;;;;;;;;18.70;99.50;;;;;;4968105;28;20356;-81
2022/04/14 13:33:53;;;;;;;;;;;18.50;99.90;;;;;;4947786;28;19914;-81
2022/04/14 13:36:18;;;;;;;;;;;18.80;99.50;;;;;;4966255;28;19938;-81
2022/04/14 13:38:44;;;;;;;;;;;18.90;99.20;;;;;;4964898;28;20034;-82
2022/04/14 13:41:11;;;;;;;;;;;18.90;99.00;;;;;;4964359;28;20005;-81
2022/04/14 13:43:37;;;;;;;;;;;18.80;98.60;;;;;;4968689;28;20209;-81
2022/04/14 13:46:03;;;;;;;;;;;18.90;98.80;;;;;;4972078;28;19985;-81
2022/04/14 13:48:28;;;;;;;;;;;19.00;97.20;;;;;;4980323;28;19918;-82
2022/04/14 13:50:54;;;;;;;;;;;19.00;97.40;;;;;;4986643;28;19918;-83
2022/04/14 13:53:20;;;;;;;;;;;18.90;97.40;;;;;;4970718;28;19941;-81
2022/04/14 13:55:47;;;;;;;;;;;18.90;97.50;;;;;;4981686;28;19909;-83
2022/04/14 13:58:15;;;;;;;;;;;18.90;98.00;;;;;;4971195;28;19918;-82
2022/04/14 14:00:41;;;;;;;;;;;18.90;98.00;;;;;;4955641;28;19918;-81
2022/04/14 14:03:08;;;;;;;;;;;19.00;97.70;;;;;;4979065;28;19937;-81
2022/04/14 14:05:34;;;;;;;;;;;19.00;97.10;;;;;;4975744;28;19942;-80
2022/04/14 14:08:00;;;;;;;;;;;19.20;97.10;;;;;;4979791;28;20005;-81
2022/04/14 14:10:25;;;;;;;;;;;19.50;96.50;;;;;;4960759;28;19915;-81
2022/04/14 14:12:51;;;;;;;;;;;19.50;96.60;;;;;;4975969;28;19921;-82
2022/04/14 14:15:16;;;;;;;;;;;19.60;96.50;;;;;;4970702;28;19921;-80
2022/04/14 14:17:42;;;;;;;;;;;19.60;96.50;;;;;;4959146;28;19914;-81
2022/04/14 14:20:08;;;;;;;;;;;19.60;96.80;;;;;;4956563;28;19922;-82
2022/04/14 14:22:34;;;;;;;;;;;19.70;96.90;;;;;;4967178;28;19914;-81